Time;durP1;ratioP1;P1;durP2;ratioP2;P2;SDS_P1;SDS_P2;PMS_P1;PMS_P2;Temp;Humidity;BMP_temperature;BMP_pressure;BME280_temperature;BME280_humidity;BME280_pressure;Samples;Min_cycle;Max_cycle;Signal;HPM_P1;HPM_P2
2022/08/09 00:01:47;;;;;;;2.40;2.20;;;;;;;15.67;100.00;102881.59;6180152;23;20032;-78
2022/08/09 00:04:23;;;;;;;2.40;2.08;;;;;;;15.65;100.00;102883.34;6183656;23;20509;-78
2022/08/09 00:07:04;;;;;;;2.53;2.20;;;;;;;15.62;100.00;102880.66;6151235;23;20355;-77
2022/08/09 00:09:38;;;;;;;3.03;2.13;;;;;;;15.59;100.00;102895.69;6186089;23;20039;-78
2022/08/09 00:12:08;;;;;;;4.10;2.08;;;;;;;15.58;100.00;102896.53;6147269;23;20254;-78
2022/08/09 00:14:50;;;;;;;3.60;2.45;;;;;;;15.54;100.00;102884.09;6166657;23;20021;-77
2022/08/09 00:17:24;;;;;;;4.10;1.83;;;;;;;15.52;100.00;102888.50;6156275;23;20021;-77
2022/08/09 00:20:15;;;;;;;4.65;2.28;;;;;;;15.50;100.00;102890.22;6141320;23;20119;-77
2022/08/09 00:22:44;;;;;;;2.58;2.22;;;;;;;15.49;100.00;102884.88;6129105;23;20451;-77
2022/08/09 00:25:15;;;;;;;9.75;2.65;;;;;;;15.47;100.00;102889.28;6182928;23;20217;-78
2022/08/09 00:27:50;;;;;;;2.55;2.10;;;;;;;15.45;100.00;102891.03;6163285;23;20017;-77
2022/08/09 00:30:19;;;;;;;4.50;2.10;;;;;;;15.43;100.00;102887.47;6115468;23;20021;-77
2022/08/09 00:32:54;;;;;;;3.60;2.28;;;;;;;15.41;100.00;102892.75;6160312;23;20028;-78
2022/08/09 00:35:25;;;;;;;3.05;2.20;;;;;;;15.37;100.00;102889.13;6178754;23;20316;-78
2022/08/09 00:37:56;;;;;;;2.42;2.03;;;;;;;15.35;100.00;102892.66;6186631;23;20023;-78
2022/08/09 00:40:25;;;;;;;3.08;2.40;;;;;;;15.33;100.00;102891.72;6134580;23;20013;-80
2022/08/09 00:42:58;;;;;;;3.20;2.28;;;;;;;15.30;100.00;102883.72;6160114;23;20017;-78
2022/08/09 00:45:46;;;;;;;2.75;2.38;;;;;;;15.26;100.00;102888.06;6166777;23;20242;-78
2022/08/09 00:48:21;;;;;;;2.65;1.95;;;;;;;15.24;100.00;102883.63;6149501;23;20120;-78
2022/08/09 00:50:50;;;;;;;4.93;2.08;;;;;;;15.21;100.00;102882.66;6179557;23;20020;-77
2022/08/09 00:53:20;;;;;;;3.83;2.22;;;;;;;15.20;100.00;102891.53;6151279;23;20120;-77
2022/08/09 00:55:51;;;;;;;2.28;2.08;;;;;;;15.17;100.00;102891.47;6185757;23;20017;-78
2022/08/09 00:58:34;;;;;;;3.45;2.13;;;;;;;15.16;100.00;102895.00;6182892;23;20238;-78
2022/08/09 01:01:14;;;;;;;2.15;1.92;;;;;;;15.12;100.00;102887.84;6141170;23;20443;-79
2022/08/09 01:04:03;;;;;;;4.28;2.28;;;;;;;15.10;100.00;102891.34;6154206;23;20475;-78
2022/08/09 01:06:53;;;;;;;1.80;1.70;;;;;;;15.08;100.00;102883.34;6122412;23;20029;-78
2022/08/09 01:09:36;;;;;;;5.78;2.22;;;;;;;15.04;100.00;102883.28;6146438;23;20033;-77
2022/08/09 01:12:34;;;;;;;3.67;2.38;;;;;;;15.02;100.00;102885.91;6126255;23;20010;-78
2022/08/09 01:15:15;;;;;;;3.72;2.53;;;;;;;14.98;100.00;102890.25;6149456;23;20048;-77
2022/08/09 01:18:03;;;;;;;3.75;2.05;;;;;;;14.96;100.00;102891.09;6105338;23;20204;-78
2022/08/09 01:21:23;;;;;;;2.97;2.38;;;;;;;14.94;100.00;102892.84;6119281;23;20021;-78
2022/08/09 01:24:27;;;;;;;4.05;2.42;;;;;;;14.89;100.00;102884.78;6082665;23;20030;-78
2022/08/09 01:27:04;;;;;;;3.20;1.92;;;;;;;14.86;100.00;102895.38;6127028;23;20013;-78
2022/08/09 01:30:04;;;;;;;3.17;2.15;;;;;;;14.83;100.00;102895.28;6142029;23;20379;-78
2022/08/09 01:32:47;;;;;;;2.53;2.25;;;;;;;14.81;100.00;102894.38;6091773;23;20021;-78
2022/08/09 01:35:44;;;;;;;3.47;2.20;;;;;;;14.78;100.00;102900.53;6118911;23;20344;-78
2022/08/09 01:38:18;;;;;;;2.85;2.17;;;;;;;14.76;100.00;102904.91;6123953;23;20021;-77
2022/08/09 01:40:58;;;;;;;4.03;2.38;;;;;;;14.73;100.00;102902.19;6148674;23;20044;-77
2022/08/09 01:43:36;;;;;;;2.50;2.30;;;;;;;14.71;100.00;102900.41;6122428;23;20144;-79
2022/08/09 01:46:23;;;;;;;1.92;1.80;;;;;;;14.69;100.00;102908.31;6120395;23;20053;-77
2022/08/09 01:49:05;;;;;;;2.60;2.20;;;;;;;14.68;100.00;102917.13;6099568;23;20440;-77
2022/08/09 01:51:43;;;;;;;2.42;2.20;;;;;;;14.66;100.00;102902.94;6113839;23;20252;-79
2022/08/09 01:54:32;;;;;;;2.38;2.17;;;;;;;14.65;100.00;102901.16;6112413;23;20172;-77
2022/08/09 01:57:06;;;;;;;4.00;2.33;;;;;;;14.64;100.00;102907.31;6126275;23;20018;-77
2022/08/09 01:59:39;;;;;;;2.88;2.08;;;;;;;14.62;100.00;102911.72;6115722;23;20125;-78
2022/08/09 02:02:24;;;;;;;2.42;2.22;;;;;;;14.60;100.00;102903.72;6120196;23;20013;-77
2022/08/09 02:05:05;;;;;;;3.83;2.30;;;;;;;14.60;100.00;102905.47;6085343;23;20029;-77
2022/08/09 02:07:48;;;;;;;2.75;2.08;;;;;;;14.58;100.00;102909.88;6092800;23;20045;-78
2022/08/09 02:10:40;;;;;;;3.17;2.58;;;;;;;14.57;100.00;102900.09;6106472;23;20221;-78
2022/08/09 02:13:20;;;;;;;3.05;2.22;;;;;;;14.55;100.00;102901.81;6115899;23;20317;-78
2022/08/09 02:15:56;;;;;;;4.03;2.28;;;;;;;14.55;100.00;102912.41;6095367;23;20029;-77
2022/08/09 02:18:29;;;;;;;2.92;2.00;;;;;;;14.53;100.00;102907.06;6112201;23;20026;-77
2022/08/09 02:21:12;;;;;;;2.92;2.35;;;;;;;14.53;100.00;102900.88;6078233;23;20022;-77
2022/08/09 02:23:54;;;;;;;2.60;2.40;;;;;;;14.51;100.00;102900.84;6087035;23;20029;-78
2022/08/09 02:26:26;;;;;;;4.88;2.30;;;;;;;14.49;100.00;102912.31;6095842;23;20029;-78
2022/08/09 02:29:15;;;;;;;2.88;2.05;;;;;;;14.48;100.00;102914.06;6085038;23;20033;-77
2022/08/09 02:31:46;;;;;;;1.90;1.80;;;;;;;14.46;100.00;102912.22;6072031;23;20014;-77
2022/08/09 02:34:18;;;;;;;2.53;2.33;;;;;;;14.43;100.00;102908.66;6114912;23;20022;-77
2022/08/09 02:37:13;;;;;;;2.13;1.92;;;;;;;14.42;100.00;102909.53;6076079;23;20022;-77
2022/08/09 02:39:47;;;;;;;3.58;2.22;;;;;;;14.42;100.00;102908.63;6116925;23;20129;-77
2022/08/09 02:42:29;;;;;;;3.55;1.88;;;;;;;14.40;100.00;102905.03;6093011;23;20025;-77
2022/08/09 02:45:10;;;;;;;2.00;1.80;;;;;;;14.39;100.00;102900.63;6048438;23;20340;-77
2022/08/09 02:47:42;;;;;;;2.53;2.10;;;;;;;14.38;100.00;102907.66;6088328;23;20324;-77
2022/08/09 02:50:32;;;;;;;2.40;2.20;;;;;;;14.36;100.00;102898.78;6095679;23;20027;-77
2022/08/09 02:53:06;;;;;;;2.72;2.33;;;;;;;14.36;100.00;102900.53;6071208;23;20026;-77
2022/08/09 02:55:37;;;;;;;2.63;2.33;;;;;;;14.35;100.00;102899.66;6091117;23;20030;-77
2022/08/09 02:58:16;;;;;;;2.45;2.05;;;;;;;14.33;100.00;102898.75;6095589;23;20025;-77
2022/08/09 03:01:06;;;;;;;2.28;2.17;;;;;;;14.32;100.00;102890.75;6075189;23;20359;-77
2022/08/09 03:03:39;;;;;;;2.45;2.25;;;;;;;14.30;100.00;102898.66;6084110;23;20372;-77
2022/08/09 03:06:29;;;;;;;4.78;2.10;;;;;;;14.30;100.00;102888.06;6073713;23;20050;-77
2022/08/09 03:09:00;;;;;;;3.15;2.10;;;;;;;14.29;100.00;102888.94;6083978;23;20022;-77
2022/08/09 03:11:29;;;;;;;;;;;;;;;14.28;100.00;102889.78;6082998;23;20022;-78
2022/08/09 03:14:19;;;;;;;3.47;2.28;;;;;;;14.26;100.00;102899.47;6099519;23;20331;-77
2022/08/09 03:16:58;;;;;;;4.07;2.33;;;;;;;14.24;100.00;102902.09;6114889;23;20045;-78
2022/08/09 03:19:31;;;;;;;2.47;2.17;;;;;;;14.23;100.00;102896.75;6114191;23;20030;-78
2022/08/09 03:22:20;;;;;;;3.10;2.47;;;;;;;14.22;100.00;102901.16;6078790;23;20022;-77
2022/08/09 03:24:59;;;;;;;3.30;2.33;;;;;;;14.21;100.00;102902.03;6122747;23;20344;-78
2022/08/09 03:27:51;;;;;;;3.92;2.38;;;;;;;14.21;100.00;102901.13;6097863;23;20022;-78
2022/08/09 03:30:23;;;;;;;3.55;2.72;;;;;;;14.21;100.00;102899.38;6097832;23;20033;-78
2022/08/09 03:33:06;;;;;;;2.58;2.38;;;;;;;14.20;100.00;102899.34;6098119;23;20019;-77
2022/08/09 03:35:48;;;;;;;2.42;2.22;;;;;;;14.19;100.00;102898.44;6116329;23;20018;-78
2022/08/09 03:38:38;;;;;;;4.78;2.95;;;;;;;14.18;100.00;102893.13;6055949;23;20026;-78
2022/08/09 03:41:14;;;;;;;4.97;2.75;;;;;;;14.16;100.00;102897.50;6097402;23;20018;-77
2022/08/09 03:43:46;;;;;;;3.28;2.30;;;;;;;14.16;100.00;102901.03;6095249;23;20061;-78
2022/08/09 03:46:35;;;;;;;4.22;2.85;;;;;;;14.16;100.00;102902.81;6082448;23;20057;-76
2022/08/09 03:49:05;;;;;;;3.25;2.88;;;;;;;14.13;100.00;102894.78;6097503;23;20023;-77
2022/08/09 03:51:43;;;;;;;2.63;2.40;;;;;;;14.13;100.00;102900.06;6088638;23;20061;-77
2022/08/09 03:54:31;;;;;;;4.38;2.70;;;;;;;14.12;100.00;102893.88;6075755;23;20026;-76
2022/08/09 03:57:05;;;;;;;3.67;2.72;;;;;;;14.11;100.00;102901.81;6087219;23;20448;-78
2022/08/09 03:59:51;;;;;;;3.75;2.60;;;;;;;14.10;100.00;102900.00;6095034;23;20026;-77
2022/08/09 04:02:26;;;;;;;3.22;2.85;;;;;;;14.10;100.00;102910.59;6118101;23;20033;-77
2022/08/09 04:05:00;;;;;;;3.22;2.58;;;;;;;14.08;100.00;102901.72;6149185;23;20018;-78
2022/08/09 04:07:34;;;;;;;4.50;2.38;;;;;;;14.08;100.00;102907.91;6101223;23;20664;-79
2022/08/09 04:10:24;;;;;;;2.88;2.67;;;;;;;14.07;100.00;102903.50;6149733;23;20026;-78
2022/08/09 04:13:00;;;;;;;3.17;2.47;;;;;;;14.07;100.00;102911.44;6087255;23;20028;-78
2022/08/09 04:15:31;;;;;;;3.90;2.47;;;;;;;14.07;100.00;102914.09;6145276;23;20049;-77
2022/08/09 04:18:20;;;;;;;3.90;2.55;;;;;;;14.08;100.00;102912.34;6147817;23;20356;-77
2022/08/09 04:20:49;;;;;;;5.35;2.40;;;;;;;14.09;100.00;102914.13;6097413;23;20026;-77
2022/08/09 04:23:20;;;;;;;2.72;2.47;;;;;;;14.10;100.00;102911.53;6111041;23;20025;-77
2022/08/09 04:25:54;;;;;;;2.38;2.15;;;;;;;14.11;100.00;102917.72;6124205;23;20017;-78
2022/08/09 04:28:24;;;;;;;2.75;1.95;;;;;;;14.12;100.00;102914.19;6115355;23;20018;-77
2022/08/09 04:31:05;;;;;;;2.42;2.13;;;;;;;14.12;100.00;102909.81;6116591;23;20029;-78
2022/08/09 04:33:38;;;;;;;2.22;2.03;;;;;;;14.13;100.00;102908.03;6087788;23;20240;-77
2022/08/09 04:36:23;;;;;;;2.20;2.00;;;;;;;14.13;100.00;102915.97;6122801;23;20044;-77
2022/08/09 04:38:53;;;;;;;3.83;2.08;;;;;;;14.13;100.00;102910.69;6138796;23;20028;-77
2022/08/09 04:41:23;;;;;;;5.00;2.30;;;;;;;14.14;100.00;102923.97;6106269;23;20359;-77
2022/08/09 04:44:02;;;;;;;2.03;1.92;;;;;;;14.17;100.00;102918.72;6140264;23;20456;-77
2022/08/09 04:46:38;;;;;;;2.10;1.85;;;;;;;14.20;100.00;102912.59;6144656;23;20363;-77
2022/08/09 04:49:36;;;;;;;2.33;2.13;;;;;;;14.21;100.00;102911.72;6146815;23;20022;-77
2022/08/09 04:52:24;;;;;;;2.38;2.00;;;;;;;14.26;100.00;102922.44;6116806;23;20031;-78
2022/08/09 04:55:00;;;;;;;3.80;2.25;;;;;;;14.35;100.00;102925.31;6130556;23;20489;-77
2022/08/09 04:57:31;;;;;;;2.45;1.60;;;;;;;15.05;100.00;102920.47;6143682;23;20404;-77
2022/08/09 05:00:21;;;;;;;2.72;1.85;;;;;;;16.14;100.00;102913.28;6140070;23;20021;-78
2022/08/09 05:02:50;;;;;;;2.72;1.80;;;;;;;17.10;100.00;102918.81;6105285;23;20363;-78
2022/08/09 05:05:20;;;;;;;2.17;1.92;;;;;;;17.88;100.00;102920.31;6128664;23;20021;-77
2022/08/09 05:07:59;;;;;;;1.85;1.75;;;;;;;18.47;100.00;102918.81;6153944;23;20044;-77
2022/08/09 05:10:29;;;;;;;1.93;1.30;;;;;;;19.04;100.00;102917.16;6109600;23;20521;-78
2022/08/09 05:12:58;;;;;;;2.60;1.58;;;;;;;19.36;100.00;102916.28;6131744;23;20024;-77
2022/08/09 05:15:31;;;;;;;1.42;1.30;;;;;;;19.25;100.00;102934.09;6128351;23;20136;-77
2022/08/09 05:18:15;;;;;;;2.20;1.13;;;;;;;19.07;100.00;102935.88;6153977;23;20014;-78
2022/08/09 05:21:04;;;;;;;3.20;1.30;;;;;;;19.23;100.00;102936.78;6146027;23;20021;-77
2022/08/09 05:23:40;;;;;;;3.00;1.20;;;;;;;19.83;100.00;102934.06;6146476;23;20628;-77
2022/08/09 05:26:31;;;;;;;1.25;1.10;;;;;;;20.41;100.00;102934.75;6087333;23;20028;-77
2022/08/09 05:29:18;;;;;;;1.92;0.98;;;;;;;21.01;100.00;102919.22;6129753;23;20828;-78
2022/08/09 05:31:50;;;;;;;1.00;0.90;;;;;;;21.71;100.00;102922.19;6154033;23;20435;-78
2022/08/09 05:34:26;;;;;;;4.55;1.30;;;;;;;22.31;100.00;102918.84;6151589;23;20013;-77
2022/08/09 05:37:03;;;;;;;1.30;1.20;;;;;;;22.84;100.00;102913.63;6129774;23;20028;-76
2022/08/09 05:39:35;;;;;;;2.30;1.20;;;;;;;22.87;100.00;102905.53;6121105;23;20683;-77
2022/08/09 05:42:12;;;;;;;3.22;1.45;;;;;;;22.52;100.00;102909.59;6057887;23;20022;-77
2022/08/09 05:44:50;;;;;;;2.25;1.40;;;;;;;22.20;100.00;102912.69;6153722;23;20013;-78
2022/08/09 05:47:20;;;;;;;1.95;1.30;;;;;;;22.01;100.00;102925.47;6144645;23;20025;-78
2022/08/09 05:49:54;;;;;;;2.15;0.90;;;;;;;22.00;100.00;102929.94;6125951;23;20026;-78
2022/08/09 05:52:43;;;;;;;1.17;1.08;;;;;;;21.78;100.00;102929.28;6105631;23;20021;-78
2022/08/09 05:55:22;;;;;;;3.67;1.48;;;;;;;21.45;100.00;102929.63;6144962;23;20018;-77
2022/08/09 05:57:51;;;;;;;3.05;1.30;;;;;;;21.18;100.00;102937.84;6129331;23;20125;-77
2022/08/09 06:00:27;;;;;;;1.70;1.20;;;;;;;20.95;100.00;102940.72;6082244;23;20032;-78
2022/08/09 06:02:58;;;;;;;2.00;1.25;;;;;;;21.09;100.00;102942.41;6127078;23;20621;-78
2022/08/09 06:05:28;;;;;;;1.73;0.98;;;;;;;21.15;100.00;102948.63;6155394;23;20025;-78
2022/08/09 06:08:17;;;;;;;4.15;1.20;;;;;;;21.25;100.00;102951.22;6112270;23;20021;-78
2022/08/09 06:10:54;;;;;;;4.05;1.15;;;;;;;21.47;100.00;102949.28;6132299;23;20236;-78
2022/08/09 06:13:24;;;;;;;1.50;1.20;;;;;;;21.48;99.45;102941.22;6133969;23;20352;-78
2022/08/09 06:16:04;;;;;;;2.45;1.10;;;;;;;21.21;98.71;102945.00;6125699;23;20482;-78
2022/08/09 06:18:33;;;;;;;4.97;1.42;;;;;;;20.96;98.99;102950.56;6157718;23;20022;-79
2022/08/09 06:21:05;;;;;;;2.50;1.15;;;;;;;20.68;99.81;102957.88;6127286;23;20121;-78
2022/08/09 06:23:34;;;;;;;2.47;1.30;;;;;;;20.45;100.00;102949.91;6140904;23;20474;-77
2022/08/09 06:26:23;;;;;;;2.45;1.50;;;;;;;20.23;100.00;102954.47;6100909;23;20017;-78
2022/08/09 06:28:56;;;;;;;6.88;2.03;;;;;;;20.08;100.00;102963.44;6117008;23;20021;-78
2022/08/09 06:31:32;;;;;;;3.88;1.30;;;;;;;19.97;100.00;102973.28;6134948;23;20347;-77
2022/08/09 06:34:24;;;;;;;1.67;1.55;;;;;;;19.93;100.00;102979.53;6151328;23;20021;-78
2022/08/09 06:36:53;;;;;;;2.60;1.23;;;;;;;19.90;100.00;102977.75;6099414;23;20026;-78
2022/08/09 06:39:28;;;;;;;1.58;1.00;;;;;;;19.92;100.00;102980.41;6103220;23;20021;-77
2022/08/09 06:42:21;;;;;;;1.55;0.95;;;;;;;19.92;100.00;102978.63;6132718;23;20235;-77
2022/08/09 06:44:57;;;;;;;0.90;0.83;;;;;;;19.93;100.00;102992.91;6125491;23;20013;-77
2022/08/09 06:47:27;;;;;;;2.15;1.10;;;;;;;19.86;100.00;102992.03;6127346;23;20014;-77
2022/08/09 06:50:09;;;;;;;2.55;1.10;;;;;;;19.82;100.00;102991.13;6127316;23;20048;-78
2022/08/09 06:52:47;;;;;;;3.63;1.00;;;;;;;19.65;100.00;103003.59;6132770;23;20420;-78
2022/08/09 06:55:19;;;;;;;3.90;1.27;;;;;;;19.57;100.00;103005.41;6097177;23;20032;-78
2022/08/09 06:57:51;;;;;;;0.80;0.80;;;;;;;19.59;100.00;103014.31;6137721;23;20032;-77
2022/08/09 07:00:33;;;;;;;0.93;0.90;;;;;;;19.64;100.00;103004.47;6169371;23;20044;-78
2022/08/09 07:03:22;;;;;;;;;;;;;;;19.59;100.00;103007.19;6069174;23;20237;-78
2022/08/09 07:05:57;;;;;;;1.27;1.00;;;;;;;19.52;100.00;103001.81;6117461;23;20248;-77
2022/08/09 07:08:33;;;;;;;0.75;0.75;;;;;;;19.55;100.00;103013.41;6134115;23;20328;-78
2022/08/09 07:11:04;;;;;;;1.33;0.90;;;;;;;19.59;100.00;103006.28;6121227;23;20021;-77
2022/08/09 07:13:34;;;;;;;3.35;1.10;;;;;;;19.63;100.00;103013.41;6151655;23;20351;-77
2022/08/09 07:16:23;;;;;;;2.72;1.10;;;;;;;19.62;100.00;103008.94;6138049;23;20021;-77
2022/08/09 07:19:12;;;;;;;1.45;1.35;;;;;;;19.68;100.00;103015.19;6129305;23;20391;-78
2022/08/09 07:21:46;;;;;;;5.55;0.93;;;;;;;19.64;100.00;103017.84;6132440;23;20324;-77
2022/08/09 07:24:27;;;;;;;;;;;;;;;19.57;100.00;103011.63;6132198;23;20203;-77
2022/08/09 07:27:10;;;;;;;2.10;1.00;;;;;;;19.63;100.00;103013.41;6121392;23;20349;-76
2022/08/09 07:29:59;;;;;;;0.88;0.80;;;;;;;19.73;100.00;103011.66;6133997;23;20053;-79
2022/08/09 07:32:32;;;;;;;1.70;1.00;;;;;;;19.84;100.00;103010.75;6124583;23;20032;-77
2022/08/09 07:35:05;;;;;;;0.95;0.93;;;;;;;19.94;100.00;103018.75;6147671;23;20025;-77
2022/08/09 07:37:40;;;;;;;0.80;0.80;;;;;;;20.02;100.00;103017.88;6144945;23;20014;-77
2022/08/09 07:40:17;;;;;;;1.60;0.93;;;;;;;20.06;100.00;103016.09;6120566;23;20215;-77
2022/08/09 07:42:57;;;;;;;1.65;0.73;;;;;;;20.09;100.00;103008.03;6147139;23;20344;-77
2022/08/09 07:45:29;;;;;;;0.75;0.60;;;;;;;20.13;100.00;103007.16;6119937;23;21175;-77
2022/08/09 07:48:10;;;;;;;2.85;1.00;;;;;;;20.16;100.00;103001.78;6145062;23;20033;-77
2022/08/09 07:50:59;;;;;;;2.83;1.00;;;;;;;20.09;100.00;103002.69;6152905;23;20021;-77
2022/08/09 07:53:51;;;;;;;5.07;1.23;;;;;;;20.06;100.00;103005.38;6132737;23;20124;-78
2022/08/09 07:56:36;;;;;;;2.03;0.90;;;;;;;20.09;100.00;103000.00;6132579;23;20466;-78
2022/08/09 07:59:19;;;;;;;1.23;1.00;;;;;;;20.15;100.00;102997.34;6132237;23;20701;-78
2022/08/09 08:02:08;;;;;;;0.90;0.90;;;;;;;20.13;100.00;103001.81;6104710;23;20021;-78
2022/08/09 08:04:37;;;;;;;0.70;0.70;;;;;;;20.16;100.00;103003.56;6129962;23;20459;-77
2022/08/09 08:07:06;;;;;;;1.05;0.75;;;;;;;20.22;100.00;103009.78;6140211;23;20329;-77
2022/08/09 08:09:54;;;;;;;2.92;0.90;;;;;;;20.23;100.00;103014.25;6155086;23;20432;-77
2022/08/09 08:12:37;;;;;;;0.73;0.70;;;;;;;20.23;100.00;103018.72;6149121;23;20026;-76
2022/08/09 08:15:15;;;;;;;1.73;0.80;;;;;;;20.27;100.00;103011.56;6144750;23;20032;-77
2022/08/09 08:17:46;;;;;;;0.77;0.77;;;;;;;20.32;100.00;103020.47;6158393;23;20021;-78
2022/08/09 08:20:24;;;;;;;2.63;0.75;;;;;;;20.36;100.00;103014.19;6104927;23;20048;-77
2022/08/09 08:22:58;;;;;;;0.73;0.73;;;;;;;20.23;99.22;103016.94;6167073;23;20021;-77
2022/08/09 08:25:34;;;;;;;1.33;0.70;;;;;;;20.21;100.00;103021.41;6154904;23;20037;-77
2022/08/09 08:28:13;;;;;;;0.77;0.77;;;;;;;20.31;99.98;103024.94;6134454;23;20024;-78
2022/08/09 08:31:04;;;;;;;0.60;0.60;;;;;;;20.33;99.60;103035.66;6154506;23;20343;-77
2022/08/09 08:33:43;;;;;;;1.20;0.57;;;;;;;20.35;99.52;103025.81;6111500;23;20018;-77
2022/08/09 08:36:22;;;;;;;1.80;0.60;;;;;;;20.36;98.84;103032.94;6130298;23;20252;-78
2022/08/09 08:38:58;;;;;;;0.65;0.65;;;;;;;20.38;99.26;103028.50;6152642;23;20033;-76
2022/08/09 08:41:29;;;;;;;0.60;0.60;;;;;;;20.43;99.21;103029.34;6128491;23;20025;-78
2022/08/09 08:44:20;;;;;;;0.45;0.45;;;;;;;20.47;98.42;103028.44;6078788;23;20021;-77
2022/08/09 08:46:58;;;;;;;2.63;1.00;;;;;;;20.49;97.89;103037.38;6085174;23;20017;-77
2022/08/09 08:49:37;;;;;;;1.50;0.65;;;;;;;20.44;97.39;103034.72;6108394;23;20029;-77
2022/08/09 08:52:18;;;;;;;0.70;0.70;;;;;;;20.40;97.58;103040.09;6152973;23;20560;-77
2022/08/09 08:55:07;;;;;;;1.08;0.52;;;;;;;20.30;97.01;103023.13;6105763;23;20021;-77
2022/08/09 08:57:36;;;;;;;1.05;0.80;;;;;;;20.24;96.53;103013.38;6156414;23;20399;-78
2022/08/09 09:00:08;;;;;;;2.00;0.60;;;;;;;20.30;97.64;103016.91;6098190;23;20021;-78
2022/08/09 09:02:58;;;;;;;1.05;0.52;;;;;;;20.41;97.50;103028.47;6154613;23;20024;-78
2022/08/09 09:05:39;;;;;;;0.82;0.60;;;;;;;20.45;97.02;103024.88;6158890;23;20021;-78
2022/08/09 09:08:33;;;;;;;1.10;0.80;;;;;;;20.51;97.56;103019.53;6135731;23;20478;-78
2022/08/09 09:11:10;;;;;;;1.05;0.60;;;;;;;20.64;97.82;103015.94;6164057;23;20612;-77
2022/08/09 09:13:51;;;;;;;2.45;0.90;;;;;;;20.77;97.33;103018.53;6138043;23;20036;-77
2022/08/09 09:16:30;;;;;;;1.85;0.60;;;;;;;20.90;97.44;103016.69;6153946;23;20017;-77
2022/08/09 09:19:07;;;;;;;0.85;0.70;;;;;;;21.02;96.64;103017.50;6140185;23;20009;-78
2022/08/09 09:22:13;;;;;;;2.25;0.70;;;;;;;20.97;96.43;103023.78;6126700;23;20021;-78
2022/08/09 09:24:54;;;;;;;0.70;0.70;;;;;;;20.91;96.27;103007.75;6157496;23;20025;-78
2022/08/09 09:27:44;;;;;;;3.57;1.10;;;;;;;20.91;97.15;103013.13;6145313;23;20633;-78
2022/08/09 09:30:34;;;;;;;1.95;0.77;;;;;;;20.92;97.55;103015.75;6133595;23;20101;-77
2022/08/09 09:33:12;;;;;;;0.70;0.70;;;;;;;20.96;97.73;103016.63;6130953;23;20025;-78
2022/08/09 09:35:52;;;;;;;2.20;0.73;;;;;;;21.03;97.45;103013.91;6141570;23;20040;-77
2022/08/09 09:38:51;;;;;;;0.80;0.60;;;;;;;21.12;95.86;103006.72;6127270;23;20010;-79
2022/08/09 09:41:22;;;;;;;0.70;0.70;;;;;;;21.13;95.74;103009.38;6118072;23;20021;-77
2022/08/09 09:43:55;;;;;;;0.47;0.47;;;;;;;21.19;95.04;103020.09;6122512;23;20056;-77
2022/08/09 09:46:42;;;;;;;1.75;0.88;;;;;;;21.23;95.52;103020.97;6145091;23;20029;-77
2022/08/09 09:49:21;;;;;;;1.42;1.05;;;;;;;21.31;95.77;103016.41;6148301;23;20024;-77
2022/08/09 09:52:11;;;;;;;2.15;0.60;;;;;;;21.42;95.62;103022.59;6106353;23;20355;-77
2022/08/09 09:55:06;;;;;;;6.07;0.90;;;;;;;21.49;94.56;103027.94;6139199;23;20017;-78
2022/08/09 09:58:03;;;;;;;4.20;0.80;;;;;;;21.49;94.78;103018.09;6151621;23;20026;-77
2022/08/09 10:00:47;;;;;;;0.98;0.70;;;;;;;21.55;94.94;103025.19;6121467;23;20136;-77
2022/08/09 10:03:43;;;;;;;3.60;0.90;;;;;;;21.62;93.31;103032.28;6148332;23;20025;-77
2022/08/09 10:06:28;;;;;;;2.30;0.60;;;;;;;21.65;94.06;103020.66;6139632;23;20052;-77
2022/08/09 10:09:03;;;;;;;0.95;0.63;;;;;;;21.72;93.80;103020.59;6116334;23;20017;-77
2022/08/09 10:12:00;;;;;;;1.55;0.73;;;;;;;21.80;93.09;103015.16;6145576;23;20028;-77
2022/08/09 10:14:49;;;;;;;4.00;0.85;;;;;;;21.90;93.07;103003.41;6152660;23;20692;-77
2022/08/09 10:17:20;;;;;;;0.68;0.57;;;;;;;21.94;91.53;102996.22;6146278;23;20380;-76
2022/08/09 10:20:18;;;;;;;0.70;0.70;;;;;;;21.96;91.63;102989.03;6123633;23;20028;-77
2022/08/09 10:23:21;;;;;;;0.88;0.55;;;;;;;22.00;91.65;102999.75;6144700;23;20033;-77
2022/08/09 10:26:05;;;;;;;0.57;0.57;;;;;;;22.06;90.36;102998.78;6146732;23;20014;-78
2022/08/09 10:28:40;;;;;;;1.98;0.60;;;;;;;22.05;89.75;102997.00;6115029;23;20029;-78
2022/08/09 10:31:13;;;;;;;0.73;0.60;;;;;;;22.07;89.99;102989.81;6075228;23;20030;-77
2022/08/09 10:34:01;;;;;;;0.70;0.60;;;;;;;22.13;89.11;103000.47;6151002;23;20013;-78
2022/08/09 10:36:39;;;;;;;0.63;0.63;;;;;;;22.18;89.45;102992.38;6147018;23;20141;-77
2022/08/09 10:39:09;;;;;;;0.68;0.60;;;;;;;22.24;88.17;102996.78;6134858;23;20017;-78
2022/08/09 10:41:45;;;;;;;0.70;0.57;;;;;;;22.26;88.15;102995.00;6117496;23;20633;-78
2022/08/09 10:44:21;;;;;;;0.60;0.60;;;;;;;22.31;87.61;103006.59;6130519;23;20017;-76
2022/08/09 10:47:21;;;;;;;0.60;0.60;;;;;;;22.33;87.08;103002.09;6150710;23;20048;-83
2022/08/09 10:53:31;;;;;;;0.95;0.70;;;;;;;22.31;85.61;103004.78;6170991;23;20044;-79
2022/08/09 10:56:17;;;;;;;0.70;0.50;;;;;;;22.33;85.36;103000.28;6128265;23;20140;-80
2022/08/09 10:58:51;;;;;;;0.85;0.73;;;;;;;22.36;85.88;103004.72;6148259;23;20028;-79
2022/08/09 11:01:30;;;;;;;0.60;0.60;;;;;;;22.35;84.32;103011.03;6126602;23;20114;-79
2022/08/09 11:04:22;;;;;;;1.60;0.60;;;;;;;22.29;85.03;103008.41;6087967;23;1138759;-80
2022/08/09 11:06:59;;;;;;;0.50;0.50;;;;;;;22.31;83.98;103010.16;6139353;23;20037;-79
2022/08/09 11:09:37;;;;;;;0.40;0.40;;;;;;;22.31;81.50;103009.28;6121360;23;20344;-79
2022/08/09 11:12:17;;;;;;;0.60;0.60;;;;;;;22.34;82.96;103019.97;6104114;23;20296;-79
2022/08/09 11:14:50;;;;;;;0.88;0.60;;;;;;;22.36;81.61;102997.59;6142852;23;20321;-80
2022/08/09 11:17:21;;;;;;;0.50;0.50;;;;;;;22.39;81.42;103002.91;6149006;23;20129;-80
2022/08/09 11:19:57;;;;;;;0.70;0.60;;;;;;;22.40;81.88;102998.44;6124488;23;20352;-80
2022/08/09 11:22:46;;;;;;;1.15;0.65;;;;;;;22.49;83.03;102995.59;6126294;23;20359;-80
2022/08/09 11:25:30;;;;;;;0.50;0.50;;;;;;;22.65;81.88;102998.13;6100156;23;20029;-79
2022/08/09 11:28:28;;;;;;;;;;;;;;;22.65;78.32;102999.00;6167566;23;20049;-79
2022/08/09 11:31:22;;;;;;;1.10;0.57;;;;;;;22.71;80.60;103003.41;6104815;23;19917;-80
2022/08/09 11:34:12;;;;;;;0.50;0.50;;;;;;;22.71;79.18;103003.41;6146876;23;20029;-82
2022/08/09 11:36:45;;;;;;;0.77;0.77;;;;;;;22.68;79.84;102998.94;6123978;23;20018;-81
2022/08/09 11:39:15;;;;;;;0.80;0.70;;;;;;;22.73;79.39;103004.28;6139071;23;20033;-79
2022/08/09 11:41:44;;;;;;;0.45;0.45;;;;;;;22.73;79.02;103010.53;6101648;23;20040;-79
2022/08/09 11:44:16;;;;;;;0.73;0.55;;;;;;;22.76;78.81;103009.63;6151503;23;20451;-79
2022/08/09 11:46:58;;;;;;;0.40;0.40;;;;;;;22.76;74.94;103006.94;6134729;23;20566;-79
2022/08/09 11:49:58;;;;;;;1.95;0.63;;;;;;;22.74;74.56;103004.25;6121492;23;20348;-80
2022/08/09 11:53:03;;;;;;;0.68;0.65;;;;;;;22.84;77.55;102993.38;6117446;23;20048;-79
2022/08/09 11:56:21;;;;;;;0.77;0.50;;;;;;;22.90;74.88;102988.78;6167111;23;20017;-80
2022/08/09 11:59:10;;;;;;;0.70;0.40;;;;;;;22.89;77.80;102986.13;6128437;23;20028;-79
2022/08/09 12:01:42;;;;;;;0.50;0.50;;;;;;;23.00;79.39;102996.72;6157937;23;20368;-80
2022/08/09 12:04:31;;;;;;;0.60;0.60;;;;;;;23.01;78.32;102988.63;6116458;23;20026;-80
2022/08/09 12:07:05;;;;;;;1.45;0.60;;;;;;;23.03;78.77;102991.31;6091661;23;20037;-80
2022/08/09 12:09:36;;;;;;;1.48;0.52;;;;;;;23.04;78.46;102988.59;6096256;23;20360;-81
2022/08/09 12:12:06;;;;;;;0.60;0.60;;;;;;;23.02;78.66;102979.63;6120057;23;20022;-80
2022/08/09 12:14:40;;;;;;;1.75;0.50;;;;;;;23.06;78.20;102977.81;6091941;23;20148;-81
2022/08/09 12:17:29;;;;;;;4.38;0.60;;;;;;;23.09;76.79;102975.97;6117403;23;20026;-81
2022/08/09 12:20:18;;;;;;;0.75;0.57;;;;;;;23.04;76.43;102990.41;6106217;23;20025;-80
2022/08/09 12:22:59;;;;;;;0.68;0.50;;;;;;;23.12;77.34;102975.06;6146112;23;20318;-80
2022/08/09 12:25:31;;;;;;;0.70;0.50;;;;;;;23.20;77.37;102970.44;6139920;23;20029;-80